Brcko, Bosnia and Herzegovina
Current Conditions -  °F | °C
As of 6:00 PM on Saturday 25 Oct 2014 (Local Time) from LQTZ Reporting Station
Broken Clouds Broken Clouds  
Wind Chill: 46°   Ceiling: 1800
Heat Index: 46°   Visibility: 6mi
Dew Point: 46°   Wind: 2mph
Humidity: 100%   Direction: NA
Pressure: 30.24"   Gusts: NA
Location:  44.87°N, 18.81°E
Report Text: LQTZ 251600Z VRB02KT 9999 FEW010 BKN018 08/08 Q1024
Loading
Personal Weather Stations






























Interactive Weather Map
Tropical Storm Tracking
New forecast layout! Learn more

10-Day Weather Forecast

Advertisements
Track Severe Weather on mobile